Time;durP1;ratioP1;P1;durP2;ratioP2;P2;SDS_P1;SDS_P2;PMS_P1;PMS_P2;Temp;Humidity;BMP_temperature;BMP_pressure;BME280_temperature;BME280_humidity;BME280_pressure;Samples;Min_cycle;Max_cycle;Signal;HPM_P1;HPM_P2
2023/06/09 00:00:51;;;;;;;4.70;3.43;;;14.80;99.90;;;;;;5094333;28;20447;-84
2023/06/09 00:03:21;;;;;;;5.57;3.70;;;14.80;99.90;;;;;;5095137;28;21027;-84
2023/06/09 00:05:49;;;;;;;4.77;3.10;;;14.90;99.90;;;;;;5094424;28;20519;-84
2023/06/09 00:08:16;;;;;;;4.90;3.33;;;15.00;99.90;;;;;;5094380;28;20466;-84
2023/06/09 00:10:43;;;;;;;3.67;3.13;;;14.90;99.90;;;;;;5093745;28;20786;-84
2023/06/09 00:13:11;;;;;;;5.27;4.10;;;15.00;99.90;;;;;;5094829;28;20479;-84
2023/06/09 00:15:38;;;;;;;5.43;3.30;;;15.10;99.90;;;;;;5094438;28;20457;-84
2023/06/09 00:18:05;;;;;;;4.77;3.70;;;15.10;99.90;;;;;;5092202;28;20501;-84
2023/06/09 00:20:33;;;;;;;4.73;3.27;;;15.10;99.90;;;;;;5094592;28;20528;-84
2023/06/09 00:23:02;;;;;;;4.63;3.60;;;15.00;99.90;;;;;;5094716;28;20496;-84
2023/06/09 00:25:29;;;;;;;4.90;3.50;;;15.00;99.90;;;;;;5094141;28;20446;-84
2023/06/09 00:27:56;;;;;;;5.33;3.57;;;14.90;99.90;;;;;;5092958;28;20973;-84
2023/06/09 00:30:23;;;;;;;4.23;3.70;;;14.90;99.90;;;;;;5094309;28;20471;-84
2023/06/09 00:32:50;;;;;;;5.20;4.13;;;14.90;99.90;;;;;;5094484;28;20460;-84
2023/06/09 00:35:18;;;;;;;4.90;3.47;;;14.90;99.90;;;;;;5093706;28;20446;-84
2023/06/09 00:37:46;;;;;;;5.00;3.67;;;14.80;99.90;;;;;;5093663;28;20554;-84
2023/06/09 00:40:16;;;;;;;4.67;3.37;;;14.80;99.90;;;;;;5094229;28;20468;-84
2023/06/09 00:42:43;;;;;;;5.53;3.73;;;14.70;99.90;;;;;;5094364;28;20505;-84
2023/06/09 00:45:10;;;;;;;3.97;2.93;;;14.70;99.90;;;;;;5093736;28;20497;-84
2023/06/09 00:47:37;;;;;;;5.67;3.67;;;14.70;99.90;;;;;;5093000;28;20526;-84
2023/06/09 00:50:05;;;;;;;5.03;3.87;;;14.70;99.90;;;;;;5093651;28;20530;-84
2023/06/09 00:52:32;;;;;;;9.83;3.90;;;14.60;99.90;;;;;;5091939;28;20451;-84
2023/06/09 00:54:59;;;;;;;4.13;3.30;;;14.60;99.90;;;;;;5091025;28;20435;-84
2023/06/09 00:57:29;;;;;;;4.90;3.87;;;14.50;99.90;;;;;;5092819;28;20468;-83
2023/06/09 00:59:57;;;;;;;4.60;3.10;;;14.40;99.90;;;;;;5093349;28;20471;-84
2023/06/09 01:02:24;;;;;;;5.30;3.23;;;14.40;99.90;;;;;;5092109;28;20461;-84
2023/06/09 01:04:54;;;;;;;4.67;3.47;;;14.50;99.90;;;;;;5092884;28;20451;-83
2023/06/09 01:07:33;;;;;;;4.37;2.90;;;14.60;99.90;;;;;;5092733;28;20464;-84
2023/06/09 01:10:08;;;;;;;5.60;3.50;;;14.60;99.90;;;;;;5093271;28;20822;-84
2023/06/09 01:12:46;;;;;;;4.00;3.40;;;14.70;99.90;;;;;;5093189;28;20537;-84
2023/06/09 01:15:18;;;;;;;5.60;3.67;;;14.60;99.90;;;;;;5092434;28;20696;-84
2023/06/09 01:17:48;;;;;;;5.17;3.40;;;14.50;99.90;;;;;;5091299;28;20463;-83
2023/06/09 01:20:22;;;;;;;5.27;3.60;;;14.50;99.90;;;;;;5092960;28;20853;-84
2023/06/09 01:22:54;;;;;;;4.33;3.10;;;14.50;99.90;;;;;;5093010;28;20433;-84
2023/06/09 01:25:34;;;;;;;5.37;3.70;;;14.40;99.90;;;;;;5092515;28;20458;-84
2023/06/09 01:28:05;;;;;;;7.10;3.67;;;14.40;99.90;;;;;;5091650;28;20875;-84
2023/06/09 01:30:36;;;;;;;4.23;2.97;;;14.30;99.90;;;;;;5092816;28;20506;-84
2023/06/09 01:33:07;;;;;;;5.50;3.90;;;14.30;99.90;;;;;;5092817;28;20457;-84
2023/06/09 01:35:35;;;;;;;5.03;3.73;;;14.20;99.90;;;;;;5092293;28;20448;-84
2023/06/09 01:38:03;;;;;;;5.00;3.80;;;14.20;99.90;;;;;;5091915;28;20552;-84
2023/06/09 01:40:33;;;;;;;4.77;3.40;;;14.20;99.90;;;;;;5092511;28;20552;-84
2023/06/09 01:43:01;;;;;;;5.27;3.50;;;14.20;99.90;;;;;;5092359;28;20428;-84
2023/06/09 01:45:28;;;;;;;5.00;3.40;;;14.20;99.90;;;;;;5092032;28;20444;-84
2023/06/09 01:47:56;;;;;;;4.73;3.53;;;14.10;99.90;;;;;;5092814;28;20515;-84
2023/06/09 01:50:32;;;;;;;4.53;3.57;;;14.10;99.90;;;;;;5101397;28;20485;-83
2023/06/09 01:53:04;;;;;;;5.00;3.50;;;14.10;99.90;;;;;;5091098;28;20492;-83
2023/06/09 01:55:38;;;;;;;5.13;4.03;;;14.10;99.90;;;;;;5089907;28;20517;-84
2023/06/09 01:58:10;;;;;;;4.67;3.67;;;13.90;99.90;;;;;;5091720;28;21032;-84
2023/06/09 02:00:38;;;;;;;5.77;3.63;;;13.90;99.90;;;;;;5091942;28;20511;-83
2023/06/09 02:03:08;;;;;;;4.87;3.47;;;13.90;99.90;;;;;;5092284;28;20874;-84
2023/06/09 02:05:36;;;;;;;5.20;3.37;;;14.00;99.90;;;;;;5092127;28;20437;-84
2023/06/09 02:08:04;;;;;;;4.60;3.33;;;14.00;99.90;;;;;;5091700;28;20466;-84
2023/06/09 02:10:32;;;;;;;4.47;3.70;;;14.00;99.90;;;;;;5092001;28;20494;-84
2023/06/09 02:13:12;;;;;;;4.90;3.60;;;14.00;99.90;;;;;;5091584;28;20524;-84
2023/06/09 02:15:39;;;;;;;4.50;3.80;;;14.00;99.90;;;;;;5091604;28;20440;-84
2023/06/09 02:18:06;;;;;;;5.13;3.67;;;14.10;99.90;;;;;;5089700;28;20499;-85
2023/06/09 02:20:33;;;;;;;8.60;4.17;;;14.10;99.90;;;;;;5092039;28;20471;-84
2023/06/09 02:23:00;;;;;;;5.73;3.77;;;14.10;99.90;;;;;;5091984;28;20873;-84
2023/06/09 02:25:28;;;;;;;4.43;3.03;;;14.10;99.90;;;;;;5091538;28;20500;-84
2023/06/09 02:27:56;;;;;;;4.77;3.63;;;14.10;99.90;;;;;;5091045;28;21011;-84
2023/06/09 02:30:23;;;;;;;5.30;3.57;;;14.00;99.90;;;;;;5090239;28;21227;-83
2023/06/09 02:32:50;;;;;;;5.03;3.60;;;14.10;99.90;;;;;;5089893;28;20496;-83
2023/06/09 02:35:17;;;;;;;5.60;4.30;;;14.20;99.90;;;;;;5089896;28;20447;-84
2023/06/09 02:37:44;;;;;;;5.27;3.30;;;14.10;99.90;;;;;;5089937;28;20484;-84
2023/06/09 02:40:12;;;;;;;4.20;3.10;;;14.10;99.90;;;;;;5090248;28;20508;-84
2023/06/09 02:42:39;;;;;;;5.10;4.17;;;14.00;99.90;;;;;;5090216;28;20480;-84
2023/06/09 02:45:09;;;;;;;4.63;3.33;;;13.90;99.90;;;;;;5091022;28;20532;-84
2023/06/09 02:47:36;;;;;;;5.33;3.43;;;13.90;99.90;;;;;;5091038;28;20455;-84
2023/06/09 02:50:03;;;;;;;5.00;3.77;;;13.90;99.90;;;;;;5091257;28;20531;-84
2023/06/09 02:52:31;;;;;;;4.30;3.23;;;13.90;99.90;;;;;;5089693;28;20535;-84
2023/06/09 02:54:58;;;;;;;4.80;3.30;;;14.00;99.90;;;;;;5089293;28;20786;-84
2023/06/09 02:57:25;;;;;;;6.97;4.87;;;14.00;99.90;;;;;;5091229;28;20574;-84
2023/06/09 02:59:52;;;;;;;4.87;3.60;;;14.00;99.90;;;;;;5091371;28;20511;-84
2023/06/09 03:02:21;;;;;;;5.00;3.40;;;14.00;99.90;;;;;;5091189;28;20459;-84
2023/06/09 03:04:48;;;;;;;3.40;2.77;;;13.90;99.90;;;;;;5091293;28;20480;-84
2023/06/09 03:07:16;;;;;;;5.20;3.80;;;14.00;99.90;;;;;;5090937;28;20968;-84
2023/06/09 03:09:43;;;;;;;4.37;3.43;;;14.00;99.90;;;;;;5091521;28;20432;-84
2023/06/09 03:12:11;;;;;;;4.23;3.20;;;14.10;99.90;;;;;;5091249;28;20539;-84
2023/06/09 03:14:38;;;;;;;5.57;3.80;;;14.10;99.90;;;;;;5090992;28;20482;-84
2023/06/09 03:17:05;;;;;;;4.60;3.30;;;14.20;99.90;;;;;;5090938;28;20544;-84
2023/06/09 03:19:34;;;;;;;6.30;3.57;;;14.20;99.90;;;;;;5089955;28;20605;-84
2023/06/09 03:22:03;;;;;;;5.37;4.70;;;14.00;99.90;;;;;;5090892;28;20436;-84
2023/06/09 03:24:30;;;;;;;5.73;4.23;;;14.10;99.90;;;;;;5091162;28;21018;-84
2023/06/09 03:26:57;;;;;;;5.00;3.87;;;13.80;99.90;;;;;;5090914;28;21258;-84
2023/06/09 03:29:24;;;;;;;5.93;4.00;;;13.70;99.90;;;;;;5091344;28;20535;-84
2023/06/09 03:31:51;;;;;;;4.87;3.77;;;13.70;99.90;;;;;;5091151;28;20472;-84
2023/06/09 03:34:18;;;;;;;5.30;3.40;;;13.80;99.90;;;;;;5090927;28;20948;-84
2023/06/09 03:36:46;;;;;;;4.77;3.70;;;13.90;99.90;;;;;;5090613;28;20440;-84
2023/06/09 03:39:13;;;;;;;6.93;3.70;;;13.90;99.90;;;;;;5091199;28;20451;-84
2023/06/09 03:41:40;;;;;;;4.10;2.73;;;13.90;99.90;;;;;;5090826;28;20847;-84
2023/06/09 03:44:07;;;;;;;4.13;3.20;;;13.90;99.90;;;;;;5092499;28;20497;-84
2023/06/09 03:46:34;;;;;;;3.50;2.90;;;13.90;99.90;;;;;;5094340;28;20952;-84
2023/06/09 03:49:01;;;;;;;4.77;3.83;;;13.90;99.90;;;;;;5094859;28;20450;-84
2023/06/09 03:51:28;;;;;;;4.67;3.40;;;14.00;99.90;;;;;;5092961;28;20482;-84
2023/06/09 03:53:56;;;;;;;4.63;3.50;;;14.00;99.90;;;;;;5093600;28;20928;-83
2023/06/09 03:56:23;;;;;;;5.47;3.93;;;14.00;99.90;;;;;;5094035;28;20535;-84
2023/06/09 03:58:50;;;;;;;4.30;3.23;;;14.00;99.90;;;;;;5094070;28;20527;-84
2023/06/09 04:01:17;;;;;;;4.43;3.50;;;13.90;99.90;;;;;;5094252;28;20486;-84
2023/06/09 04:03:44;;;;;;;4.93;3.50;;;14.00;99.90;;;;;;5093981;28;20960;-84
2023/06/09 04:06:11;;;;;;;5.20;3.00;;;13.90;99.90;;;;;;5094534;28;20448;-84
2023/06/09 04:08:38;;;;;;;4.87;3.30;;;13.90;99.90;;;;;;5093995;28;20744;-84
2023/06/09 04:11:07;;;;;;;4.80;3.90;;;13.90;99.90;;;;;;5094202;28;20995;-84
2023/06/09 04:13:34;;;;;;;4.30;3.40;;;13.80;99.90;;;;;;5093812;28;20932;-84
2023/06/09 04:16:00;;;;;;;4.77;3.57;;;13.70;99.90;;;;;;5094130;28;20871;-84
2023/06/09 04:18:27;;;;;;;4.87;3.70;;;13.60;99.90;;;;;;5092106;28;20501;-84
2023/06/09 04:20:54;;;;;;;5.70;3.80;;;13.70;99.90;;;;;;5093866;28;20566;-84
2023/06/09 04:23:21;;;;;;;5.03;3.87;;;13.60;99.90;;;;;;5094253;28;20522;-83
2023/06/09 04:25:49;;;;;;;7.43;3.67;;;13.70;99.90;;;;;;5093465;28;20457;-84
2023/06/09 04:28:18;;;;;;;5.03;3.57;;;13.80;99.90;;;;;;5093534;28;20470;-84
2023/06/09 04:30:47;;;;;;;3.83;3.20;;;13.80;99.90;;;;;;5094402;28;20516;-84
2023/06/09 04:33:14;;;;;;;4.70;3.47;;;13.80;99.90;;;;;;5094220;28;20482;-84
2023/06/09 04:35:43;;;;;;;8.43;4.10;;;13.80;99.90;;;;;;5093521;28;20444;-84
2023/06/09 04:38:10;;;;;;;5.20;4.20;;;13.80;99.90;;;;;;5093478;28;20502;-84
2023/06/09 04:40:37;;;;;;;5.00;3.60;;;13.70;99.90;;;;;;5093816;28;20528;-84
2023/06/09 04:43:07;;;;;;;6.00;3.80;;;13.70;99.90;;;;;;5094083;28;20450;-84
2023/06/09 04:45:35;;;;;;;5.17;3.90;;;13.60;99.90;;;;;;5093381;28;20451;-84
2023/06/09 04:48:02;;;;;;;5.20;4.27;;;13.70;99.90;;;;;;5093293;28;21113;-84
2023/06/09 04:50:32;;;;;;;5.10;4.10;;;13.70;99.90;;;;;;5093488;28;20476;-85
2023/06/09 04:53:03;;;;;;;5.70;4.13;;;13.80;99.90;;;;;;5091776;28;20448;-84
2023/06/09 04:55:30;;;;;;;4.10;3.37;;;13.80;99.90;;;;;;5090819;28;20493;-85
2023/06/09 04:57:57;;;;;;;7.53;4.40;;;13.80;99.90;;;;;;5092953;28;20517;-84
2023/06/09 05:00:27;;;;;;;4.80;3.93;;;13.80;99.90;;;;;;5093022;28;20594;-84
2023/06/09 05:02:57;;;;;;;5.03;3.33;;;13.80;99.90;;;;;;5093385;28;20497;-84
2023/06/09 05:05:24;;;;;;;5.13;3.70;;;13.70;99.90;;;;;;5092924;28;21160;-84
2023/06/09 05:07:51;;;;;;;5.60;3.80;;;13.60;99.90;;;;;;5093263;28;20456;-84
2023/06/09 05:10:18;;;;;;;4.90;3.70;;;13.60;99.90;;;;;;5092967;28;20454;-84
2023/06/09 05:12:45;;;;;;;5.00;4.10;;;13.60;99.90;;;;;;5093003;28;20492;-84
2023/06/09 05:15:12;;;;;;;5.17;3.90;;;13.70;99.90;;;;;;5092732;28;20544;-84
2023/06/09 05:17:41;;;;;;;4.37;3.60;;;13.80;99.90;;;;;;5092179;28;20501;-84
2023/06/09 05:20:11;;;;;;;5.30;3.90;;;13.70;99.90;;;;;;5092835;28;20484;-84
2023/06/09 05:22:39;;;;;;;4.97;3.67;;;13.80;99.90;;;;;;5093099;28;20531;-84
2023/06/09 05:25:09;;;;;;;7.43;4.07;;;13.80;99.90;;;;;;5092543;28;20544;-84
2023/06/09 05:27:36;;;;;;;5.40;3.70;;;13.90;99.90;;;;;;5092569;28;20459;-84
2023/06/09 05:30:03;;;;;;;5.17;3.90;;;13.90;99.90;;;;;;5093196;28;20509;-84
2023/06/09 05:32:30;;;;;;;4.80;4.30;;;13.80;99.90;;;;;;5098360;28;20473;-84
2023/06/09 05:34:57;;;;;;;6.77;4.10;;;13.70;99.90;;;;;;5097201;28;20472;-84
2023/06/09 05:37:25;;;;;;;5.40;3.53;;;13.70;99.90;;;;;;5091926;28;20550;-84
2023/06/09 05:39:52;;;;;;;5.27;4.40;;;13.70;99.90;;;;;;5092444;28;21112;-84
2023/06/09 05:42:19;;;;;;;6.57;4.20;;;13.80;99.90;;;;;;5092536;28;20703;-84
2023/06/09 05:44:46;;;;;;;7.57;4.53;;;13.80;99.90;;;;;;5090775;28;20455;-83
2023/06/09 05:47:13;;;;;;;6.33;5.40;;;13.90;99.90;;;;;;5090058;28;21101;-84
2023/06/09 05:49:40;;;;;;;6.43;4.67;;;13.90;99.90;;;;;;5092346;28;20518;-84
2023/06/09 05:52:07;;;;;;;4.70;3.60;;;13.90;99.90;;;;;;5090674;28;20535;-84
2023/06/09 05:54:36;;;;;;;4.83;3.90;;;13.90;99.90;;;;;;5081221;28;20473;-84
2023/06/09 05:57:04;;;;;;;11.07;4.17;;;14.00;99.90;;;;;;5084786;28;20459;-84
2023/06/09 05:59:32;;;;;;;4.80;3.67;;;14.00;99.90;;;;;;5091771;28;20976;-84
2023/06/09 06:02:00;;;;;;;6.50;4.23;;;14.10;99.90;;;;;;5091589;28;20472;-84
2023/06/09 06:04:28;;;;;;;5.60;3.97;;;14.20;99.90;;;;;;5090802;28;20447;-84
2023/06/09 06:06:55;;;;;;;4.90;3.87;;;14.40;99.90;;;;;;5090223;28;20861;-84
2023/06/09 06:09:22;;;;;;;5.40;4.13;;;14.70;99.90;;;;;;5091679;28;20520;-84
2023/06/09 06:11:50;;;;;;;6.50;4.13;;;14.80;99.90;;;;;;5091803;28;20455;-85
2023/06/09 06:14:17;;;;;;;4.20;3.73;;;15.00;99.90;;;;;;5091373;28;20463;-84
2023/06/09 06:16:44;;;;;;;4.80;3.50;;;15.20;99.90;;;;;;5091312;28;20470;-84
2023/06/09 06:19:11;;;;;;;8.77;6.20;;;15.40;99.90;;;;;;5090127;28;20445;-84
2023/06/09 06:21:40;;;;;;;4.83;3.97;;;15.40;99.90;;;;;;5091401;28;20465;-84
2023/06/09 06:24:09;;;;;;;4.97;3.53;;;15.50;99.90;;;;;;5090828;28;20493;-84
2023/06/09 06:26:36;;;;;;;5.50;4.03;;;15.50;99.90;;;;;;5091202;28;20475;-84
2023/06/09 06:29:04;;;;;;;4.73;3.67;;;15.60;99.90;;;;;;5091288;28;20444;-83
2023/06/09 06:31:31;;;;;;;4.53;3.60;;;15.60;99.90;;;;;;5091226;28;20488;-84
2023/06/09 06:33:58;;;;;;;6.00;3.50;;;15.60;99.90;;;;;;5091398;28;20459;-84
2023/06/09 06:36:26;;;;;;;4.80;3.50;;;15.60;99.90;;;;;;5108280;22;20478;-52
2023/06/09 06:38:53;;;;;;;5.30;4.40;;;15.60;99.90;;;;;;5131364;27;20461;-48
2023/06/09 06:41:20;;;;;;;4.60;3.93;;;15.70;99.90;;;;;;5128021;28;20474;-50
2023/06/09 06:43:49;;;;;;;5.93;3.50;;;15.70;99.90;;;;;;5120317;28;20437;-48
2023/06/09 06:46:18;;;;;;;5.63;4.23;;;15.80;99.90;;;;;;5120489;28;20485;-48
2023/06/09 06:48:45;;;;;;;4.97;4.10;;;15.80;99.90;;;;;;5138958;22;21056;-89
2023/06/09 06:51:12;;;;;;;5.83;3.63;;;15.80;99.90;;;;;;5110064;28;20437;-88
2023/06/09 06:53:39;;;;;;;5.40;3.67;;;15.80;99.90;;;;;;5111478;28;20440;-85
2023/06/09 06:56:06;;;;;;;4.70;3.90;;;15.90;99.90;;;;;;5110778;28;20572;-91
2023/06/09 06:58:33;;;;;;;5.83;3.43;;;16.00;99.90;;;;;;5100293;28;20526;-88
2023/06/09 07:01:02;;;;;;;5.30;4.10;;;16.00;99.90;;;;;;5105246;28;20508;-89
2023/06/09 07:03:33;;;;;;;4.73;3.87;;;16.00;99.90;;;;;;5112700;28;20456;-90
2023/06/09 07:06:01;;;;;;;5.50;3.77;;;16.10;99.90;;;;;;5114349;28;20592;-91
2023/06/09 07:08:28;;;;;;;6.50;4.07;;;16.30;99.90;;;;;;5091041;28;20453;-89
2023/06/09 07:10:55;;;;;;;5.50;3.60;;;16.30;99.90;;;;;;5073323;28;20435;-88
2023/06/09 07:13:22;;;;;;;4.97;4.13;;;16.20;99.90;;;;;;5082311;28;20493;-88
2023/06/09 07:15:49;;;;;;;4.00;3.43;;;16.30;99.90;;;;;;5093511;28;20531;-88
2023/06/09 07:18:16;;;;;;;5.13;3.70;;;16.30;99.90;;;;;;5093702;28;20518;-89
2023/06/09 07:20:45;;;;;;;5.53;4.20;;;16.40;99.90;;;;;;5095568;28;20539;-86
2023/06/09 07:23:11;;;;;;;4.63;3.17;;;16.60;99.90;;;;;;5090768;28;20439;-88
2023/06/09 07:25:38;;;;;;;4.70;3.77;;;16.70;99.90;;;;;;5080424;28;20910;-88
2023/06/09 07:28:05;;;;;;;6.27;4.00;;;16.80;99.90;;;;;;5088432;28;20497;-89
2023/06/09 07:30:32;;;;;;;4.57;3.77;;;16.90;99.90;;;;;;5084144;28;20486;-87
2023/06/09 07:33:00;;;;;;;5.13;3.60;;;17.00;99.90;;;;;;5093894;28;20810;-87
2023/06/09 07:35:28;;;;;;;4.87;3.57;;;17.10;99.90;;;;;;5101207;28;20534;-88
2023/06/09 07:37:56;;;;;;;5.13;3.60;;;17.20;99.90;;;;;;5094245;28;20439;-87
2023/06/09 07:40:23;;;;;;;4.83;3.50;;;17.20;99.90;;;;;;5102244;28;20462;-87
2023/06/09 07:42:50;;;;;;;6.10;4.17;;;17.30;99.90;;;;;;5101304;28;21354;-87
2023/06/09 07:45:18;;;;;;;4.87;3.70;;;17.50;99.90;;;;;;5100012;28;20436;-88
2023/06/09 07:47:45;;;;;;;5.27;3.97;;;17.60;99.90;;;;;;5108613;28;20467;-88
2023/06/09 07:50:12;;;;;;;6.73;4.37;;;17.60;99.90;;;;;;5110708;28;20456;-87
2023/06/09 07:52:39;;;;;;;6.17;3.77;;;17.60;99.90;;;;;;5110555;28;20460;-88
2023/06/09 07:55:08;;;;;;;4.93;3.60;;;17.70;99.90;;;;;;5109823;28;20548;-87
2023/06/09 07:57:35;;;;;;;3.90;3.17;;;17.80;99.90;;;;;;5112015;28;20474;-89
2023/06/09 08:00:06;;;;;;;5.10;3.80;;;17.90;99.90;;;;;;5115975;28;20431;-90
2023/06/09 08:02:33;;;;;;;4.77;3.60;;;18.00;99.90;;;;;;5115717;28;20882;-89
2023/06/09 08:05:01;;;;;;;6.77;4.03;;;18.10;99.90;;;;;;5114181;28;20519;-87
2023/06/09 08:07:28;;;;;;;5.77;3.90;;;18.10;99.90;;;;;;5114397;28;21051;-88
2023/06/09 08:09:56;;;;;;;4.53;3.47;;;18.30;99.90;;;;;;5115853;28;20494;-87
2023/06/09 08:12:24;;;;;;;5.53;4.00;;;18.30;99.90;;;;;;5113881;28;20947;-87
2023/06/09 08:14:51;;;;;;;4.77;3.80;;;18.40;99.90;;;;;;5113630;28;20435;-86
2023/06/09 08:17:18;;;;;;;6.20;4.67;;;18.50;99.90;;;;;;5112908;28;21004;-86
2023/06/09 08:19:45;;;;;;;4.43;3.57;;;18.70;99.90;;;;;;5112497;28;20449;-86
2023/06/09 08:22:12;;;;;;;5.50;4.07;;;18.80;99.90;;;;;;5093850;28;20521;-87
2023/06/09 08:24:39;;;;;;;6.03;3.60;;;18.80;99.90;;;;;;5093586;28;20951;-87
2023/06/09 08:27:07;;;;;;;4.17;3.30;;;18.90;99.90;;;;;;5093725;28;20460;-87
2023/06/09 08:29:36;;;;;;;8.50;4.27;;;19.10;99.90;;;;;;5093940;28;20443;-85
2023/06/09 08:32:03;;;;;;;5.40;3.70;;;19.20;99.90;;;;;;5093781;28;20443;-86
2023/06/09 08:34:30;;;;;;;5.03;3.43;;;19.30;99.90;;;;;;5093746;28;20440;-86
2023/06/09 08:36:58;;;;;;;6.70;3.90;;;19.30;99.90;;;;;;5092249;28;20874;-85
2023/06/09 08:39:24;;;;;;;8.00;4.43;;;19.30;99.90;;;;;;5094010;28;20452;-84
2023/06/09 08:41:55;;;;;;;6.80;4.53;;;19.20;99.90;;;;;;5094940;28;20471;-85
2023/06/09 08:44:23;;;;;;;5.13;4.00;;;19.20;99.90;;;;;;5094189;28;20476;-86
2023/06/09 08:46:54;;;;;;;6.30;4.80;;;19.20;99.90;;;;;;5093841;28;20463;-84
2023/06/09 08:49:21;;;;;;;5.70;4.27;;;19.30;99.90;;;;;;5094113;28;20546;-88
2023/06/09 08:51:49;;;;;;;5.47;3.87;;;19.30;99.90;;;;;;5093686;28;20920;-87
2023/06/09 08:54:17;;;;;;;6.20;3.50;;;19.40;99.90;;;;;;5093388;28;20808;-88
2023/06/09 08:56:47;;;;;;;5.27;4.60;;;19.50;99.90;;;;;;5093811;28;20882;-86
2023/06/09 08:59:15;;;;;;;4.90;4.13;;;19.50;99.90;;;;;;5092614;28;21204;-89
2023/06/09 09:01:42;;;;;;;5.53;4.57;;;19.60;99.90;;;;;;5093299;28;20863;-85
2023/06/09 09:04:10;;;;;;;4.83;4.30;;;19.70;99.90;;;;;;5094403;28;20505;-87
2023/06/09 09:06:39;;;;;;;4.50;3.83;;;19.90;99.90;;;;;;5093896;28;20497;-86
2023/06/09 09:09:06;;;;;;;5.67;3.97;;;19.90;99.90;;;;;;5094390;28;20445;-86
2023/06/09 09:11:33;;;;;;;5.57;4.10;;;19.90;99.90;;;;;;5093675;28;20467;-86
2023/06/09 09:14:09;;;;;;;4.77;3.10;;;20.00;99.90;;;;;;5093240;28;20219;-86
2023/06/09 09:16:36;;;;;;;4.10;3.50;;;20.10;99.90;;;;;;5110546;28;20498;-86
2023/06/09 09:19:04;;;;;;;5.00;3.67;;;20.10;99.90;;;;;;5100015;28;20424;-85
2023/06/09 09:21:37;;;;;;;5.33;3.90;;;20.20;99.90;;;;;;5094217;28;20475;-86
2023/06/09 09:24:06;;;;;;;6.07;3.80;;;20.40;99.90;;;;;;5092193;28;20501;-84
2023/06/09 09:26:33;;;;;;;5.43;4.80;;;20.50;99.90;;;;;;5092234;28;20471;-85
2023/06/09 09:29:02;;;;;;;6.03;4.70;;;20.60;99.90;;;;;;5093868;28;20424;-85
2023/06/09 09:31:33;;;;;;;5.67;3.80;;;20.70;99.90;;;;;;5093099;28;20428;-86
2023/06/09 09:34:01;;;;;;;6.50;3.70;;;20.90;99.90;;;;;;5092452;28;20420;-86
2023/06/09 09:36:28;;;;;;;5.10;3.63;;;21.00;99.90;;;;;;5091094;28;20540;-87
2023/06/09 09:39:05;;;;;;;4.90;3.80;;;21.00;99.90;;;;;;5092888;28;20454;-86
2023/06/09 09:41:32;;;;;;;5.67;4.60;;;21.00;99.90;;;;;;5101949;28;20480;-86
2023/06/09 09:43:59;;;;;;;4.70;4.10;;;21.00;99.90;;;;;;5097346;28;20461;-87
2023/06/09 09:46:26;;;;;;;4.50;4.10;;;21.00;99.90;;;;;;5091987;28;20456;-86
2023/06/09 09:48:54;;;;;;;4.93;3.80;;;21.00;99.90;;;;;;5092449;28;20531;-87
2023/06/09 09:51:21;;;;;;;4.60;3.80;;;21.10;99.90;;;;;;5092643;28;20452;-86
2023/06/09 09:53:50;;;;;;;5.80;4.40;;;21.20;99.90;;;;;;5092032;28;20498;-86
2023/06/09 09:56:22;;;;;;;4.93;3.70;;;21.30;99.90;;;;;;5090466;28;21033;-87
2023/06/09 09:58:53;;;;;;;5.20;3.83;;;21.50;99.90;;;;;;5092881;28;20448;-87
2023/06/09 10:01:23;;;;;;;6.60;3.80;;;21.60;99.90;;;;;;5090196;28;20534;-86
2023/06/09 10:03:52;;;;;;;4.37;3.50;;;21.70;99.90;;;;;;5092187;28;20444;-86
2023/06/09 10:06:21;;;;;;;5.10;3.97;;;21.80;99.90;;;;;;5092865;28;20482;-86
2023/06/09 10:08:48;;;;;;;5.17;3.43;;;21.80;99.90;;;;;;5094157;28;20498;-86
2023/06/09 10:11:15;;;;;;;4.50;3.90;;;21.90;99.90;;;;;;5092197;28;20452;-86
2023/06/09 10:13:45;;;;;;;4.80;3.80;;;22.00;99.90;;;;;;5092265;28;20537;-84
2023/06/09 10:16:12;;;;;;;4.90;3.40;;;21.90;99.90;;;;;;5095415;28;20464;-83
2023/06/09 10:18:41;;;;;;;6.47;4.00;;;21.80;99.90;;;;;;5093079;28;20826;-85
2023/06/09 10:21:10;;;;;;;6.50;4.60;;;21.80;99.90;;;;;;5093582;28;20439;-86
2023/06/09 10:23:38;;;;;;;5.17;4.10;;;21.70;99.90;;;;;;5093110;28;20472;-86
2023/06/09 10:26:06;;;;;;;6.03;4.40;;;21.70;99.90;;;;;;5092439;28;20561;-86
2023/06/09 10:28:33;;;;;;;6.93;4.70;;;21.60;99.90;;;;;;5092125;28;20440;-83
2023/06/09 10:31:03;;;;;;;4.70;4.03;;;21.70;99.90;;;;;;5092415;28;20971;-86
2023/06/09 10:33:34;;;;;;;4.73;3.50;;;21.70;99.90;;;;;;5091358;28;20941;-86
2023/06/09 10:36:05;;;;;;;5.47;3.80;;;21.70;99.90;;;;;;5091813;28;21026;-86
2023/06/09 10:38:40;;;;;;;7.10;4.80;;;21.60;99.90;;;;;;5090992;28;20507;-86
2023/06/09 10:41:12;;;;;;;5.47;4.27;;;21.70;99.90;;;;;;5090452;28;20444;-86
2023/06/09 10:44:23;;;;;;;4.83;3.73;;;21.60;99.90;;;;;;5092379;28;20479;-85
2023/06/09 10:46:53;;;;;;;4.07;3.40;;;21.60;99.90;;;;;;5078347;28;21040;-86
2023/06/09 10:49:43;;;;;;;4.93;3.47;;;21.70;99.90;;;;;;5090257;28;20452;-85
2023/06/09 10:52:49;;;;;;;9.10;4.27;;;21.70;99.90;;;;;;5092153;28;20446;-85
2023/06/09 10:55:16;;;;;;;5.90;3.70;;;21.70;99.90;;;;;;5093828;28;20443;-86
2023/06/09 10:57:44;;;;;;;4.93;3.40;;;21.80;99.90;;;;;;5096468;28;20440;-85
2023/06/09 11:00:15;;;;;;;5.13;3.40;;;21.80;99.90;;;;;;5094515;28;20473;-85
2023/06/09 11:02:51;;;;;;;4.80;3.80;;;21.80;99.90;;;;;;5096505;28;20476;-86
2023/06/09 11:05:19;;;;;;;5.63;3.70;;;21.80;99.90;;;;;;5086217;28;20462;-87
2023/06/09 11:07:51;;;;;;;6.13;5.07;;;21.90;99.90;;;;;;5077953;28;20536;-86
2023/06/09 11:10:26;;;;;;;5.40;4.27;;;21.80;99.90;;;;;;5079106;28;20497;-85
2023/06/09 11:12:55;;;;;;;5.40;4.13;;;21.80;99.90;;;;;;5079260;28;20448;-86
2023/06/09 11:15:23;;;;;;;5.80;3.40;;;21.90;99.90;;;;;;5073443;28;20432;-85
2023/06/09 11:17:52;;;;;;;4.33;3.33;;;21.80;99.90;;;;;;5071486;28;20880;-86
2023/06/09 11:20:21;;;;;;;4.77;2.83;;;21.90;99.90;;;;;;5071841;28;20444;-87
2023/06/09 11:23:03;;;;;;;4.93;4.43;;;21.90;99.90;;;;;;5071645;28;20478;-87
2023/06/09 11:25:37;;;;;;;5.93;4.50;;;21.90;99.90;;;;;;5071352;28;20451;-86
2023/06/09 11:28:22;;;;;;;5.20;3.97;;;22.00;99.90;;;;;;5082784;28;20447;-87
2023/06/09 11:31:08;;;;;;;4.60;4.00;;;22.00;99.90;;;;;;5091171;28;20440;-87
2023/06/09 11:33:57;;;;;;;4.40;3.97;;;22.00;99.90;;;;;;5082679;28;20447;-86
2023/06/09 11:36:30;;;;;;;5.30;4.10;;;22.00;99.90;;;;;;5084225;28;20475;-85
2023/06/09 11:39:07;;;;;;;5.03;3.63;;;22.20;99.90;;;;;;5093249;28;20811;-90
2023/06/09 11:41:34;;;;;;;5.33;4.37;;;22.40;99.90;;;;;;5096235;28;20435;-92
2023/06/09 11:44:04;;;;;;;5.50;4.57;;;22.40;99.90;;;;;;5091196;28;20479;-90
2023/06/09 12:08:39;;;;;;;;;;;;;;;;;;;;;
2023/06/09 12:17:48;;;;;;;6.43;4.40;;;23.10;99.90;;;;;;4902593;28;20520;-89
2023/06/09 12:20:23;;;;;;;5.30;4.00;;;23.40;98.80;;;;;;5014043;28;20979;-91
2023/06/09 12:22:50;;;;;;;4.63;3.43;;;23.40;99.90;;;;;;5112161;28;20975;-90
2023/06/09 12:25:24;;;;;;;4.50;3.20;;;23.30;99.90;;;;;;5090653;28;20500;-91
2023/06/09 12:27:52;;;;;;;4.60;3.80;;;23.40;99.90;;;;;;5090661;28;20448;-91
2023/06/09 12:30:33;;;;;;;5.00;3.93;;;23.40;99.90;;;;;;5089825;28;20788;-91
2023/06/09 12:33:06;;;;;;;5.07;4.27;;;23.40;99.90;;;;;;5090404;28;20456;-90
2023/06/09 12:35:38;;;;;;;5.10;4.13;;;23.50;99.90;;;;;;5090201;28;20867;-91
2023/06/09 12:38:16;;;;;;;4.10;3.47;;;23.50;99.90;;;;;;5082510;28;20824;-90
2023/06/09 12:40:47;;;;;;;8.83;4.33;;;23.60;99.90;;;;;;5085873;28;20456;-90
2023/06/09 12:43:14;;;;;;;4.53;3.40;;;23.80;99.90;;;;;;5093964;28;20478;-91
2023/06/09 12:45:43;;;;;;;6.80;3.87;;;23.70;99.90;;;;;;5093618;28;20828;-90
2023/06/09 12:48:11;;;;;;;7.30;4.23;;;23.80;98.10;;;;;;5094095;28;20523;-91
2023/06/09 12:50:39;;;;;;;6.70;4.70;;;23.70;96.90;;;;;;5094166;28;20531;-91
2023/06/09 12:53:08;;;;;;;9.13;3.80;;;23.80;98.20;;;;;;5093865;28;20501;-90
2023/06/09 12:55:35;;;;;;;4.77;4.17;;;23.90;98.30;;;;;;5091676;28;20477;-90
2023/06/09 12:58:02;;;;;;;6.07;4.10;;;23.90;99.10;;;;;;5094346;28;20428;-91
2023/06/09 13:00:30;;;;;;;4.97;3.70;;;24.00;99.00;;;;;;5077020;28;20436;-91
2023/06/09 13:02:58;;;;;;;6.80;4.00;;;24.00;97.20;;;;;;5073499;28;20564;-90
2023/06/09 13:05:31;;;;;;;4.43;3.60;;;24.00;97.10;;;;;;5072832;28;20875;-91
2023/06/09 13:07:59;;;;;;;5.40;3.57;;;24.10;98.50;;;;;;5084465;28;20433;-91
2023/06/09 13:10:26;;;;;;;6.43;3.80;;;24.20;99.90;;;;;;5092292;28;20452;-91
2023/06/09 13:12:53;;;;;;;5.33;3.50;;;24.20;96.30;;;;;;5085182;28;20968;-90
2023/06/09 13:15:21;;;;;;;5.17;3.33;;;24.20;97.60;;;;;;5080848;28;20490;-90
2023/06/09 13:17:48;;;;;;;6.53;4.37;;;24.20;98.40;;;;;;5081643;28;20852;-90
2023/06/09 13:20:16;;;;;;;6.70;4.07;;;24.20;97.20;;;;;;5084716;28;20432;-89
2023/06/09 13:22:45;;;;;;;14.87;4.47;;;24.20;98.70;;;;;;5084361;28;21000;-92
2023/06/09 13:25:12;;;;;;;6.90;4.47;;;24.30;96.40;;;;;;5081795;28;20926;-90